Etusivu
METAR-TAF:

METAR-TAF

Lentoasemat :

Düsseldorfin lentoasema

Düsseldorf, Saksa

Leveyspiiri: 51-18N, Pituuspiiri: 006-46E, korkeus merenpinnasta: 45 m

Tämänhetkinen sää

Tämä raportti tehtiin 23 minuuttia sitten, kello 03.50 UTC
Tuuli 2 kn kaakosta
Lämpötila -2°C
Kosteus 100%
Ilmanpaine 1026 hPa
Näkyvyys 10 km tai enemmän
ei pilviä alle 1500 m:ssä eikä cumulonimbus-pilviä

METAR: EDDL 190350Z 13002KT CAVOK M02/M02 Q1026 NOSIG

Aika: 05:13 (04:13 UTC)

Sääennuste

Tämä raportti tehtiin 5 tuntia ja 13 minuuttia sitten, kello 23.00 UTC
Ennuste voimassa 19. päivästä klo 00 UTC - 20. päivään klo 06 UTC
Tuuli 3 kn eri suunnista
Näkyvyys 10 km tai enemmän
Muutamia pilviä 3000 ft:n korkeudessa
Tulossa
19. päivästä klo 09 UTC - 19. päivään klo 12 UTC
Tuuli 5 kn lännestä/lounaasta
Tulossa
19. päivästä klo 16 UTC - 19. päivään klo 19 UTC
Tuuli 5 kn etelästä/kaakosta

TAF: EDDL 182300Z 1900/2006 VRB03KT 9999 FEW030 BECMG 1909/1912 25005KT BECMG 1916/1919 16005KT

Säähavainnot ja -ennusteet yli 4000 lentoasemalta (METAR- ja TAF-raportit).

Käytössä olevat sääasemat on merkitty karttaan keltaisilla ja punaisilla pisteillä.

Aseta hiiri pisteen päälle nähdäksesi sääaseman nimen.

Klikkaa sitten nähdäksesi säähavainnot ja -ennusteet.

Kartan vaihtaminen: klikkaa mustalla rastilla varustettuja vihreitä pisteitä, niin voit zoomata sisään; viivalla varustettua vihreää pistettä, niin voit zoomata ulos tai vihreitä nuolia, niin pääset viereisille kartoille.


METAR-TAF: